Time;durP1;ratioP1;P1;durP2;ratioP2;P2;SDS_P1;SDS_P2;PMS_P1;PMS_P2;Temp;Humidity;BMP_temperature;BMP_pressure;BME280_temperature;BME280_humidity;BME280_pressure;Samples;Min_cycle;Max_cycle;Signal;HPM_P1;HPM_P2
2021/01/01 00:00:29;;;;;;;;;;;2.30;99.90;;;;;;5071188;28;20379;-77
2021/01/01 00:02:54;;;;;;;;;;;2.20;99.90;;;;;;5071145;28;20288;-76
2021/01/01 00:05:20;;;;;;;;;;;2.30;99.90;;;;;;5069992;28;20002;-76
2021/01/01 00:07:45;;;;;;;;;;;2.30;99.90;;;;;;5070474;28;19915;-77
2021/01/01 00:10:12;;;;;;;;;;;2.30;99.90;;;;;;5069146;28;20379;-76
2021/01/01 00:12:38;;;;;;;;;;;2.20;99.90;;;;;;5071060;28;19909;-76
2021/01/01 00:15:06;;;;;;;;;;;2.20;99.90;;;;;;5070949;28;19919;-79
2021/01/01 00:17:32;;;;;;;;;;;2.20;99.90;;;;;;5070623;28;19946;-76
2021/01/01 00:19:58;;;;;;;;;;;2.20;99.90;;;;;;5069722;28;20293;-78
2021/01/01 00:22:23;;;;;;;;;;;2.20;99.90;;;;;;5069786;28;19909;-79
2021/01/01 00:24:49;;;;;;;;;;;2.30;99.90;;;;;;5070917;28;19912;-76
2021/01/01 00:27:15;;;;;;;;;;;2.30;99.90;;;;;;5068896;28;20389;-76
2021/01/01 00:29:40;;;;;;;;;;;2.30;99.90;;;;;;5070993;28;19908;-76
2021/01/01 00:32:06;;;;;;;;;;;2.30;99.90;;;;;;5071040;28;19912;-77
2021/01/01 00:34:31;;;;;;;;;;;2.30;99.90;;;;;;5071233;28;19912;-76
2021/01/01 00:37:00;;;;;;;;;;;2.40;99.90;;;;;;5070439;28;19916;-76
2021/01/01 00:39:25;;;;;;;;;;;2.40;99.90;;;;;;5069597;28;19915;-76
2021/01/01 00:41:51;;;;;;;;;;;2.40;99.90;;;;;;5070828;28;19908;-76
2021/01/01 00:44:17;;;;;;;;;;;2.40;99.90;;;;;;5070879;28;19915;-76
2021/01/01 00:46:42;;;;;;;;;;;2.40;99.90;;;;;;5068993;28;20361;-76
2021/01/01 00:49:08;;;;;;;;;;;2.40;99.90;;;;;;5070677;28;19912;-76
2021/01/01 00:51:34;;;;;;;;;;;2.40;99.90;;;;;;5070799;28;20081;-76
2021/01/01 00:53:59;;;;;;;;;;;2.30;99.90;;;;;;5065883;28;19924;-76
2021/01/01 00:56:26;;;;;;;;;;;2.30;99.90;;;;;;5071503;28;19908;-76
2021/01/01 00:58:52;;;;;;;;;;;2.30;99.90;;;;;;5074749;28;20376;-76
2021/01/01 01:01:18;;;;;;;;;;;2.30;99.90;;;;;;5070591;28;20391;-76
2021/01/01 01:03:44;;;;;;;;;;;2.30;99.90;;;;;;5070635;28;19915;-75
2021/01/01 01:06:10;;;;;;;;;;;2.20;99.90;;;;;;5069035;28;19909;-76
2021/01/01 01:08:35;;;;;;;;;;;2.20;99.90;;;;;;5070375;28;20008;-76
2021/01/01 01:11:01;;;;;;;;;;;2.20;99.90;;;;;;5069259;28;19916;-77
2021/01/01 01:13:27;;;;;;;;;;;2.20;99.90;;;;;;5070455;28;19931;-77
2021/01/01 01:15:52;;;;;;;;;;;2.20;99.90;;;;;;5070333;28;20359;-76
2021/01/01 01:18:18;;;;;;;;;;;2.20;99.90;;;;;;5070403;28;19915;-76
2021/01/01 01:20:43;;;;;;;;;;;2.10;99.90;;;;;;5072418;28;19916;-76
2021/01/01 01:23:08;;;;;;;;;;;2.10;99.90;;;;;;5073966;28;20330;-76
2021/01/01 01:25:34;;;;;;;;;;;2.00;99.90;;;;;;5070197;28;19915;-74
2021/01/01 01:27:59;;;;;;;;;;;2.00;99.90;;;;;;5073857;28;20473;-74
2021/01/01 01:30:25;;;;;;;;;;;2.00;99.90;;;;;;5073736;28;19966;-77
2021/01/01 01:32:51;;;;;;;;;;;2.00;99.90;;;;;;5072540;28;20297;-74
2021/01/01 01:35:16;;;;;;;;;;;2.00;99.90;;;;;;5073811;28;19912;-74
2021/01/01 01:37:42;;;;;;;;;;;2.00;99.90;;;;;;5073214;28;19908;-74
2021/01/01 01:40:08;;;;;;;;;;;1.90;99.90;;;;;;5073804;28;19912;-77
2021/01/01 01:42:33;;;;;;;;;;;1.90;99.90;;;;;;5073648;28;19915;-75
2021/01/01 01:44:59;;;;;;;;;;;1.90;99.90;;;;;;5073516;28;20325;-74
2021/01/01 01:47:24;;;;;;;;;;;1.90;99.90;;;;;;5073665;28;19909;-74
2021/01/01 01:49:50;;;;;;;;;;;1.90;99.90;;;;;;5073472;28;20365;-75
2021/01/01 01:52:16;;;;;;;;;;;1.90;99.90;;;;;;5073491;28;19954;-74
2021/01/01 01:54:41;;;;;;;;;;;2.00;99.90;;;;;;5071153;28;19916;-74
2021/01/01 01:57:07;;;;;;;;;;;2.00;99.90;;;;;;5072787;28;20188;-73
2021/01/01 01:59:33;;;;;;;;;;;2.00;99.90;;;;;;5073238;28;20373;-74
2021/01/01 02:01:58;;;;;;;;;;;2.00;99.90;;;;;;5073295;28;19966;-74
2021/01/01 02:04:24;;;;;;;;;;;2.10;99.90;;;;;;5073256;28;19909;-75
2021/01/01 02:06:49;;;;;;;;;;;2.10;99.90;;;;;;5072695;28;20029;-74
2021/01/01 02:09:15;;;;;;;;;;;2.10;99.90;;;;;;5073027;28;20353;-74
2021/01/01 02:11:41;;;;;;;;;;;2.10;99.90;;;;;;5071848;28;19948;-74
2021/01/01 02:14:07;;;;;;;;;;;2.10;99.90;;;;;;5073083;28;20004;-74
2021/01/01 02:16:33;;;;;;;;;;;2.20;99.90;;;;;;5072646;28;20381;-75
2021/01/01 02:18:59;;;;;;;;;;;2.20;99.90;;;;;;5072900;28;19919;-74
2021/01/01 02:21:24;;;;;;;;;;;2.20;99.90;;;;;;5072831;28;19908;-74
2021/01/01 02:23:50;;;;;;;;;;;2.30;99.90;;;;;;5071416;28;19909;-74
2021/01/01 02:26:15;;;;;;;;;;;2.30;99.90;;;;;;5072011;28;20163;-73
2021/01/01 02:28:41;;;;;;;;;;;2.30;99.90;;;;;;5072561;28;19971;-74
2021/01/01 02:31:06;;;;;;;;;;;2.30;99.90;;;;;;5071998;28;19926;-75
2021/01/01 02:33:32;;;;;;;;;;;2.40;99.90;;;;;;5072341;28;19916;-74
2021/01/01 02:35:58;;;;;;;;;;;2.30;99.90;;;;;;5072014;28;19908;-73
2021/01/01 02:38:23;;;;;;;;;;;2.40;99.90;;;;;;5072404;28;19912;-74
2021/01/01 02:40:49;;;;;;;;;;;2.40;99.90;;;;;;5072374;28;19952;-76
2021/01/01 02:43:14;;;;;;;;;;;2.40;99.90;;;;;;5072445;28;19915;-74
2021/01/01 02:45:40;;;;;;;;;;;2.40;99.90;;;;;;5072310;28;19909;-74
2021/01/01 02:48:13;;;;;;;;;;;2.40;99.90;;;;;;5071048;28;19908;-74
2021/01/01 02:50:38;;;;;;;;;;;2.40;99.90;;;;;;5072087;28;19947;-73
2021/01/01 02:53:04;;;;;;;;;;;2.30;99.90;;;;;;5072230;28;19908;-74
2021/01/01 02:55:30;;;;;;;;;;;2.30;99.90;;;;;;5062562;28;19916;-74
2021/01/01 02:57:57;;;;;;;;;;;2.30;99.90;;;;;;5070435;28;19912;-74
2021/01/01 03:00:22;;;;;;;;;;;2.30;99.90;;;;;;5071788;28;19916;-74
2021/01/01 03:02:48;;;;;;;;;;;2.30;99.90;;;;;;5070863;28;19908;-74
2021/01/01 03:05:13;;;;;;;;;;;2.30;99.90;;;;;;5071358;28;20323;-76
2021/01/01 03:07:39;;;;;;;;;;;2.30;99.90;;;;;;5071425;28;19916;-74
2021/01/01 03:10:04;;;;;;;;;;;2.30;99.90;;;;;;5071815;28;19908;-74
2021/01/01 03:12:30;;;;;;;;;;;2.30;99.90;;;;;;5071866;28;19912;-75
2021/01/01 03:14:55;;;;;;;;;;;2.40;99.90;;;;;;5071547;28;19939;-77
2021/01/01 03:17:21;;;;;;;;;;;2.40;99.90;;;;;;5070797;28;20007;-74
2021/01/01 03:19:46;;;;;;;;;;;2.40;99.90;;;;;;5075048;28;20276;-74
2021/01/01 03:22:12;;;;;;;;;;;2.40;99.90;;;;;;5071526;28;19955;-75
2021/01/01 03:24:37;;;;;;;;;;;2.40;99.90;;;;;;5070367;28;19915;-74
2021/01/01 03:27:02;;;;;;;;;;;2.40;99.90;;;;;;5071190;28;19908;-74
2021/01/01 03:29:28;;;;;;;;;;;2.40;99.90;;;;;;5071256;28;19909;-74
2021/01/01 03:31:53;;;;;;;;;;;2.40;99.90;;;;;;5071485;28;19917;-74
2021/01/01 03:34:19;;;;;;;;;;;2.40;99.90;;;;;;5071288;28;20369;-74
2021/01/01 03:36:44;;;;;;;;;;;2.40;99.90;;;;;;5071023;28;19909;-74
2021/01/01 03:39:10;;;;;;;;;;;2.40;99.90;;;;;;5070173;28;19916;-76
2021/01/01 03:41:35;;;;;;;;;;;2.40;99.90;;;;;;5075423;28;19916;-74
2021/01/01 03:44:01;;;;;;;;;;;2.40;99.90;;;;;;5069923;28;19908;-74
2021/01/01 03:46:26;;;;;;;;;;;2.40;99.90;;;;;;5070926;28;20332;-74
2021/01/01 03:48:52;;;;;;;;;;;2.40;99.90;;;;;;5071514;28;19909;-74
2021/01/01 03:51:17;;;;;;;;;;;2.40;99.90;;;;;;5071254;28;19908;-74
2021/01/01 03:53:43;;;;;;;;;;;2.40;99.90;;;;;;5071071;28;19913;-74
2021/01/01 03:56:10;;;;;;;;;;;2.40;99.90;;;;;;5070697;28;20428;-74
2021/01/01 03:58:35;;;;;;;;;;;2.30;99.90;;;;;;5071097;28;19908;-74
2021/01/01 04:01:00;;;;;;;;;;;2.30;99.90;;;;;;5071084;28;20325;-74
2021/01/01 04:03:26;;;;;;;;;;;2.30;99.90;;;;;;5070825;28;19916;-74
2021/01/01 04:05:51;;;;;;;;;;;2.30;99.90;;;;;;5070616;28;19908;-74
2021/01/01 04:08:17;;;;;;;;;;;2.30;99.90;;;;;;5070773;28;20304;-74
2021/01/01 04:10:42;;;;;;;;;;;2.30;99.90;;;;;;5071157;28;19909;-74
2021/01/01 04:13:09;;;;;;;;;;;2.30;99.90;;;;;;5076490;28;19909;-74
2021/01/01 04:15:34;;;;;;;;;;;2.30;99.90;;;;;;5069206;28;20385;-74
2021/01/01 04:18:00;;;;;;;;;;;2.20;99.90;;;;;;5069406;28;20035;-74
2021/01/01 04:20:25;;;;;;;;;;;2.20;99.90;;;;;;5069472;28;19909;-74
2021/01/01 04:22:51;;;;;;;;;;;2.20;99.90;;;;;;5070941;28;19915;-75
2021/01/01 04:25:16;;;;;;;;;;;2.20;99.90;;;;;;5070882;28;20381;-74
2021/01/01 04:27:42;;;;;;;;;;;2.20;99.90;;;;;;5070358;28;19909;-74
2021/01/01 04:30:07;;;;;;;;;;;2.20;99.90;;;;;;5070656;28;19935;-76
2021/01/01 04:32:33;;;;;;;;;;;2.20;99.90;;;;;;5069425;28;19958;-74
2021/01/01 04:34:58;;;;;;;;;;;2.20;99.90;;;;;;5070724;28;19993;-74
2021/01/01 04:37:24;;;;;;;;;;;2.20;99.90;;;;;;5070819;28;19908;-74
2021/01/01 04:39:49;;;;;;;;;;;2.20;99.90;;;;;;5069656;28;20369;-77
2021/01/01 04:42:15;;;;;;;;;;;2.20;99.90;;;;;;5070264;28;19909;-74
2021/01/01 04:44:41;;;;;;;;;;;2.20;99.90;;;;;;5056292;28;19915;-74
2021/01/01 04:47:07;;;;;;;;;;;2.10;99.90;;;;;;5070222;28;20289;-74
2021/01/01 04:49:33;;;;;;;;;;;2.10;99.90;;;;;;5069215;28;20007;-74
2021/01/01 04:52:01;;;;;;;;;;;2.10;99.90;;;;;;5063669;28;20000;-74
2021/01/01 04:54:28;;;;;;;;;;;2.00;99.90;;;;;;5071644;28;19912;-74
2021/01/01 04:56:53;;;;;;;;;;;2.00;99.90;;;;;;5074034;28;19908;-74
2021/01/01 04:59:19;;;;;;;;;;;2.00;99.90;;;;;;5074200;28;20004;-74
2021/01/01 05:01:45;;;;;;;;;;;1.90;99.90;;;;;;5074158;28;19909;-74
2021/01/01 05:04:11;;;;;;;;;;;1.90;99.90;;;;;;5073153;28;19934;-74
2021/01/01 05:06:38;;;;;;;;;;;1.90;99.90;;;;;;5073904;28;20360;-74
2021/01/01 05:09:03;;;;;;;;;;;2.00;99.90;;;;;;5073997;28;19909;-74
2021/01/01 05:11:29;;;;;;;;;;;2.00;99.90;;;;;;5074060;28;20375;-74
2021/01/01 05:13:59;;;;;;;;;;;2.00;99.90;;;;;;5073976;28;19958;-74
2021/01/01 05:16:24;;;;;;;;;;;1.90;99.90;;;;;;5073436;28;19913;-75
2021/01/01 05:18:51;;;;;;;;;;;1.90;99.90;;;;;;5074040;28;19909;-74
2021/01/01 05:21:26;;;;;;;;;;;1.90;99.90;;;;;;5073823;28;19947;-75
2021/01/01 05:23:53;;;;;;;;;;;1.80;99.90;;;;;;5072674;28;19942;-74
2021/01/01 05:26:18;;;;;;;;;;;1.80;99.90;;;;;;5073156;28;19915;-76
2021/01/01 05:28:50;;;;;;;;;;;1.80;99.90;;;;;;5073676;28;19908;-74
2021/01/01 05:31:16;;;;;;;;;;;1.80;99.90;;;;;;5074052;28;20284;-74
2021/01/01 05:33:42;;;;;;;;;;;1.80;99.90;;;;;;5073673;28;19935;-74
2021/01/01 05:36:08;;;;;;;;;;;1.80;99.90;;;;;;5073375;28;19909;-74
2021/01/01 05:38:35;;;;;;;;;;;1.80;99.90;;;;;;5072267;28;20358;-74
2021/01/01 05:41:01;;;;;;;;;;;1.80;99.90;;;;;;5071544;28;19909;-75
2021/01/01 05:43:27;;;;;;;;;;;1.80;99.90;;;;;;5073153;28;19915;-74
2021/01/01 05:46:05;;;;;;;;;;;1.80;99.90;;;;;;5073183;28;19908;-74
2021/01/01 05:48:31;;;;;;;;;;;1.70;99.90;;;;;;5073370;28;19909;-76
2021/01/01 05:51:03;;;;;;;;;;;1.70;99.90;;;;;;5073377;28;19962;-74
2021/01/01 05:53:29;;;;;;;;;;;1.70;99.90;;;;;;5066746;28;20350;-76
2021/01/01 05:56:05;;;;;;;;;;;1.70;99.90;;;;;;5072807;28;19970;-74
2021/01/01 05:58:30;;;;;;;;;;;1.70;99.90;;;;;;5073200;28;20007;-74
2021/01/01 06:00:59;;;;;;;;;;;1.80;99.90;;;;;;5073259;28;20000;-74
2021/01/01 06:03:25;;;;;;;;;;;1.80;99.90;;;;;;5073145;28;19909;-74
2021/01/01 06:05:54;;;;;;;;;;;1.80;99.90;;;;;;5072251;28;19908;-74
2021/01/01 06:08:27;;;;;;;;;;;1.80;99.90;;;;;;5072273;28;19913;-74
2021/01/01 06:10:54;;;;;;;;;;;1.80;99.90;;;;;;5072109;28;19913;-74
2021/01/01 06:13:20;;;;;;;;;;;1.80;99.90;;;;;;5072720;28;20446;-74
2021/01/01 06:15:55;;;;;;;;;;;1.80;99.90;;;;;;5072531;28;19912;-74
2021/01/01 06:18:25;;;;;;;;;;;1.70;99.90;;;;;;5072811;28;20003;-74
2021/01/01 06:20:53;;;;;;;;;;;1.70;99.90;;;;;;5072780;28;19963;-74
2021/01/01 06:23:28;;;;;;;;;;;1.70;99.90;;;;;;5072717;28;20447;-74
2021/01/01 06:25:53;;;;;;;;;;;1.70;99.90;;;;;;5072343;28;20427;-74
2021/01/01 06:28:19;;;;;;;;;;;1.80;99.90;;;;;;5072535;28;19912;-74
2021/01/01 06:30:44;;;;;;;;;;;1.80;99.90;;;;;;5072648;28;20284;-74
2021/01/01 06:33:10;;;;;;;;;;;1.80;99.90;;;;;;5071435;28;19948;-76
2021/01/01 06:35:42;;;;;;;;;;;1.80;99.90;;;;;;5072183;28;19913;-74
2021/01/01 06:38:07;;;;;;;;;;;1.80;99.90;;;;;;5072557;28;19931;-74
2021/01/01 06:40:33;;;;;;;;;;;1.80;99.90;;;;;;5073981;28;20369;-74
2021/01/01 06:43:03;;;;;;;;;;;1.80;99.90;;;;;;5075939;28;19912;-74
2021/01/01 06:45:41;;;;;;;;;;;1.80;99.90;;;;;;5072269;28;19924;-74
2021/01/01 06:48:10;;;;;;;;;;;1.80;99.90;;;;;;5072083;28;19984;-76
2021/01/01 06:50:37;;;;;;;;;;;1.80;99.90;;;;;;5072245;28;19995;-74
2021/01/01 06:53:04;;;;;;;;;;;1.80;99.90;;;;;;5072170;28;20376;-75
2021/01/01 06:55:33;;;;;;;;;;;1.80;99.90;;;;;;5072050;28;19963;-74
2021/01/01 06:57:59;;;;;;;;;;;1.90;99.90;;;;;;5066449;28;20380;-75
2021/01/01 07:00:43;;;;;;;;;;;1.90;99.90;;;;;;5071735;28;19908;-74
2021/01/01 07:06:12;;;;;;;;;;;1.90;99.90;;;;;;5067684;28;19909;-74
2021/01/01 07:08:44;;;;;;;;;;;1.90;99.90;;;;;;5060824;28;19916;-74
2021/01/01 07:11:12;;;;;;;;;;;1.90;99.90;;;;;;5071722;28;20377;-74
2021/01/01 07:13:41;;;;;;;;;;;1.90;99.90;;;;;;5071683;28;20006;-74
2021/01/01 07:16:06;;;;;;;;;;;1.90;99.90;;;;;;5070282;28;19913;-74
2021/01/01 07:18:32;;;;;;;;;;;1.90;99.90;;;;;;5071270;28;19908;-74
2021/01/01 07:21:00;;;;;;;;;;;1.90;99.90;;;;;;5071770;28;19908;-74
2021/01/01 07:23:29;;;;;;;;;;;1.90;99.90;;;;;;5071514;28;19995;-74
2021/01/01 07:25:55;;;;;;;;;;;1.90;99.90;;;;;;5071269;28;20017;-74
2021/01/01 07:28:24;;;;;;;;;;;1.90;99.90;;;;;;5075060;28;19991;-74
2021/01/01 07:30:50;;;;;;;;;;;1.90;99.90;;;;;;5071414;28;19938;-74
2021/01/01 07:33:22;;;;;;;;;;;2.00;99.90;;;;;;5071450;28;20025;-75
2021/01/01 07:35:58;;;;;;;;;;;2.00;99.90;;;;;;5071529;28;19913;-74
2021/01/01 07:38:24;;;;;;;;;;;2.00;99.90;;;;;;5050506;28;19912;-74
2021/01/01 07:40:50;;;;;;;;;;;2.00;99.90;;;;;;5069796;28;19912;-74
2021/01/01 07:43:16;;;;;;;;;;;2.00;99.90;;;;;;5071370;28;19908;-74
2021/01/01 07:45:41;;;;;;;;;;;2.10;99.90;;;;;;5070884;28;20400;-74
2021/01/01 07:48:07;;;;;;;;;;;2.10;99.90;;;;;;5071270;28;20354;-74
2021/01/01 07:50:33;;;;;;;;;;;2.10;99.90;;;;;;5071158;28;20020;-74
2021/01/01 07:53:03;;;;;;;;;;;2.10;99.90;;;;;;5071374;28;19908;-74
2021/01/01 07:55:29;;;;;;;;;;;2.10;99.90;;;;;;5069754;28;19935;-74
2021/01/01 07:58:15;;;;;;;;;;;2.10;99.90;;;;;;5070811;28;19909;-74
2021/01/01 08:00:41;;;;;;;;;;;2.10;99.90;;;;;;5070699;28;19912;-74
2021/01/01 08:03:07;;;;;;;;;;;2.10;99.90;;;;;;5069821;28;20379;-74
2021/01/01 08:05:33;;;;;;;;;;;2.10;99.90;;;;;;5071464;28;19909;-74
2021/01/01 08:08:17;;;;;;;;;;;2.20;99.90;;;;;;5071187;28;19908;-74
2021/01/01 08:10:43;;;;;;;;;;;2.20;99.90;;;;;;5070919;28;20377;-74
2021/01/01 08:13:16;;;;;;;;;;;2.20;99.90;;;;;;5071109;28;19912;-74
2021/01/01 08:15:42;;;;;;;;;;;2.30;99.90;;;;;;5071113;28;20280;-74
2021/01/01 08:18:08;;;;;;;;;;;2.30;99.90;;;;;;5069863;28;19908;-74
2021/01/01 08:20:33;;;;;;;;;;;2.40;99.90;;;;;;5071120;28;19908;-74
2021/01/01 08:23:01;;;;;;;;;;;2.40;99.90;;;;;;5069884;28;19916;-74
2021/01/01 08:25:27;;;;;;;;;;;2.40;99.90;;;;;;5071406;28;20392;-74
2021/01/01 08:27:52;;;;;;;;;;;2.40;99.90;;;;;;5070764;28;19934;-74
2021/01/01 08:30:18;;;;;;;;;;;2.30;99.90;;;;;;5071002;28;19920;-74
2021/01/01 08:32:44;;;;;;;;;;;2.30;99.90;;;;;;5074900;28;19909;-74
2021/01/01 08:35:09;;;;;;;;;;;2.30;99.90;;;;;;5074991;28;20296;-74
2021/01/01 08:37:35;;;;;;;;;;;2.30;99.90;;;;;;5073176;28;20377;-74
2021/01/01 08:40:05;;;;;;;;;;;2.30;99.90;;;;;;5075034;28;20360;-74
2021/01/01 08:42:33;;;;;;;;;;;2.30;99.90;;;;;;5074963;28;19920;-74
2021/01/01 08:44:58;;;;;;;;;;;2.30;99.90;;;;;;5074985;28;20007;-74
2021/01/01 08:47:43;;;;;;;;;;;2.30;99.90;;;;;;5073286;28;20000;-74
2021/01/01 08:50:26;;;;;;;;;;;2.40;99.90;;;;;;5074780;28;19920;-74
2021/01/01 08:53:03;;;;;;;;;;;2.40;99.90;;;;;;5075258;28;19912;-74
2021/01/01 08:55:29;;;;;;;;;;;2.40;99.90;;;;;;5054655;28;19913;-74
2021/01/01 08:58:14;;;;;;;;;;;2.40;99.90;;;;;;5067823;28;20281;-74
2021/01/01 09:00:41;;;;;;;;;;;2.40;99.90;;;;;;5071125;28;19916;-74
2021/01/01 09:03:07;;;;;;;;;;;2.40;99.90;;;;;;5074537;28;19915;-74
2021/01/01 09:05:33;;;;;;;;;;;2.40;99.90;;;;;;5074251;28;19913;-74
2021/01/01 09:08:04;;;;;;;;;;;2.40;99.90;;;;;;5074371;28;19915;-74
2021/01/01 09:10:30;;;;;;;;;;;2.40;99.90;;;;;;5074414;28;19912;-74
2021/01/01 09:12:55;;;;;;;;;;;2.40;99.90;;;;;;5073169;28;19909;-74
2021/01/01 09:15:28;;;;;;;;;;;2.40;99.90;;;;;;5074299;28;19916;-74
2021/01/01 09:18:02;;;;;;;;;;;2.40;99.90;;;;;;5073866;28;19915;-74
2021/01/01 09:20:28;;;;;;;;;;;2.40;99.90;;;;;;5074189;28;19908;-74
2021/01/01 09:22:58;;;;;;;;;;;2.40;99.90;;;;;;5072946;28;19915;-74
2021/01/01 09:25:24;;;;;;;;;;;2.50;99.90;;;;;;5074210;28;19908;-74
2021/01/01 09:27:50;;;;;;;;;;;2.50;99.90;;;;;;5072195;28;20061;-74
2021/01/01 09:30:17;;;;;;;;;;;2.50;99.90;;;;;;5073744;28;19916;-74
2021/01/01 09:32:47;;;;;;;;;;;2.60;99.90;;;;;;5068102;28;20007;-74
2021/01/01 09:35:13;;;;;;;;;;;2.70;99.90;;;;;;5072119;28;19913;-74
2021/01/01 09:37:45;;;;;;;;;;;2.80;99.90;;;;;;5071182;28;19908;-74
2021/01/01 09:40:10;;;;;;;;;;;2.80;99.90;;;;;;5073896;28;19919;-74
2021/01/01 09:42:36;;;;;;;;;;;2.80;99.90;;;;;;5073633;28;20289;-74
2021/01/01 09:45:02;;;;;;;;;;;2.80;99.90;;;;;;5072411;28;20580;-74
2021/01/01 09:47:27;;;;;;;;;;;2.80;99.90;;;;;;5073257;28;19962;-74
2021/01/01 09:49:52;;;;;;;;;;;2.90;99.90;;;;;;5073538;28;19909;-74
2021/01/01 09:52:18;;;;;;;;;;;3.00;99.90;;;;;;5073686;28;19908;-75
2021/01/01 09:54:43;;;;;;;;;;;3.00;99.90;;;;;;5073779;28;19912;-75
2021/01/01 09:57:09;;;;;;;;;;;3.10;99.90;;;;;;5073202;28;19913;-74
2021/01/01 09:59:34;;;;;;;;;;;3.20;99.90;;;;;;5073294;28;20531;-74
2021/01/01 10:02:00;;;;;;;;;;;3.30;99.90;;;;;;5072780;28;19958;-74
2021/01/01 10:04:25;;;;;;;;;;;3.40;99.90;;;;;;5072913;28;20409;-74
2021/01/01 10:06:51;;;;;;;;;;;3.40;99.90;;;;;;5072867;28;19987;-74
2021/01/01 10:09:16;;;;;;;;;;;3.50;99.90;;;;;;5073232;28;20122;-74
2021/01/01 10:11:46;;;;;;;;;;;3.40;99.90;;;;;;5072070;28;19908;-74
2021/01/01 10:14:12;;;;;;;;;;;3.50;99.90;;;;;;5073167;28;20003;-74
2021/01/01 10:16:39;;;;;;;;;;;3.40;99.90;;;;;;5071496;28;20446;-74
2021/01/01 10:19:04;;;;;;;;;;;3.50;99.90;;;;;;5076750;28;19908;-74
2021/01/01 10:21:30;;;;;;;;;;;3.50;99.90;;;;;;5072766;28;20018;-75
2021/01/01 10:23:55;;;;;;;;;;;3.50;99.90;;;;;;5073015;28;19920;-74
2021/01/01 10:26:21;;;;;;;;;;;3.50;99.90;;;;;;5072631;28;20430;-74
2021/01/01 10:28:46;;;;;;;;;;;3.50;99.90;;;;;;5071405;28;19916;-74
2021/01/01 10:31:12;;;;;;;;;;;3.50;99.90;;;;;;5071542;28;19971;-74
2021/01/01 10:33:38;;;;;;;;;;;3.60;99.90;;;;;;5072604;28;19930;-74
2021/01/01 10:36:03;;;;;;;;;;;3.70;99.90;;;;;;5072576;28;20046;-74
2021/01/01 10:38:31;;;;;;;;;;;3.80;99.90;;;;;;5072619;28;19959;-74
2021/01/01 10:40:56;;;;;;;;;;;3.80;99.90;;;;;;5073054;28;19947;-74
2021/01/01 10:43:22;;;;;;;;;;;3.90;99.90;;;;;;5072533;28;19979;-74
2021/01/01 10:45:47;;;;;;;;;;;4.00;99.90;;;;;;5070857;28;19931;-75
2021/01/01 10:48:13;;;;;;;;;;;4.00;99.90;;;;;;5071524;28;20408;-74
2021/01/01 10:50:38;;;;;;;;;;;4.00;99.90;;;;;;5068104;28;19909;-74
2021/01/01 10:53:04;;;;;;;;;;;4.10;99.90;;;;;;5071818;28;19908;-74
2021/01/01 10:55:31;;;;;;;;;;;4.10;99.90;;;;;;5072283;28;20133;-75
2021/01/01 10:57:57;;;;;;;;;;;4.10;99.90;;;;;;5071848;28;19943;-74
2021/01/01 11:00:22;;;;;;;;;;;4.10;99.90;;;;;;5070953;28;19971;-74
2021/01/01 11:02:48;;;;;;;;;;;4.20;99.90;;;;;;5072125;28;20004;-75
2021/01/01 11:05:13;;;;;;;;;;;4.20;99.90;;;;;;5072169;28;19909;-75
2021/01/01 11:07:39;;;;;;;;;;;4.20;99.90;;;;;;5071882;28;19914;-75
2021/01/01 11:10:04;;;;;;;;;;;4.30;99.90;;;;;;5070866;28;19999;-75
2021/01/01 11:12:32;;;;;;;;;;;4.30;99.90;;;;;;5072018;28;19916;-74
2021/01/01 12:23:32;;;;;;;;;;;4.10;99.90;;;;;;5069055;28;20396;-75
2021/01/01 12:25:58;;;;;;;;;;;4.10;99.90;;;;;;5064866;28;20273;-74
2021/01/01 12:28:24;;;;;;;;;;;4.20;99.90;;;;;;5071000;28;19908;-75
2021/01/01 12:30:52;;;;;;;;;;;4.20;99.90;;;;;;5070695;28;20068;-75
2021/01/01 12:33:18;;;;;;;;;;;4.20;99.90;;;;;;5070969;28;20373;-75
2021/01/01 12:35:43;;;;;;;;;;;4.20;99.90;;;;;;5069263;28;19919;-74
2021/01/01 12:38:09;;;;;;;;;;;4.20;99.90;;;;;;5069371;28;20320;-74
2021/01/01 12:40:35;;;;;;;;;;;4.20;99.90;;;;;;5065994;28;19909;-74
2021/01/01 12:43:01;;;;;;;;;;;4.20;99.90;;;;;;5069377;28;19966;-75
2021/01/01 12:45:27;;;;;;;;;;;4.20;99.90;;;;;;5069405;28;19912;-75
2021/01/01 12:47:53;;;;;;;;;;;4.20;99.90;;;;;;5069142;28;19909;-75
2021/01/01 12:50:19;;;;;;;;;;;4.20;99.90;;;;;;5071248;28;19940;-75
2021/01/01 12:52:54;;;;;;;;;;;4.20;99.90;;;;;;5070550;28;19909;-75
2021/01/01 12:55:20;;;;;;;;;;;4.20;99.90;;;;;;5069327;28;19920;-75
2021/01/01 12:57:46;;;;;;;;;;;4.30;99.90;;;;;;5063533;28;20274;-74
2021/01/01 13:00:12;;;;;;;;;;;4.30;99.90;;;;;;5074016;28;20349;-75
2021/01/01 13:02:37;;;;;;;;;;;4.40;99.90;;;;;;5070686;28;19915;-75
2021/01/01 13:05:03;;;;;;;;;;;4.30;99.90;;;;;;5070517;28;19999;-75
2021/01/01 13:07:28;;;;;;;;;;;4.30;99.90;;;;;;5070279;28;19915;-75
2021/01/01 13:09:53;;;;;;;;;;;4.30;99.90;;;;;;5070566;28;20250;-74
2021/01/01 13:12:19;;;;;;;;;;;4.30;99.90;;;;;;5070545;28;19913;-75
2021/01/01 13:14:44;;;;;;;;;;;4.30;99.90;;;;;;5070502;28;19919;-74
2021/01/01 13:17:10;;;;;;;;;;;4.30;99.90;;;;;;5072930;28;20335;-75
2021/01/01 13:19:35;;;;;;;;;;;4.30;99.90;;;;;;5073986;28;19909;-75
2021/01/01 13:22:01;;;;;;;;;;;4.30;99.90;;;;;;5073944;28;20289;-75
2021/01/01 13:24:26;;;;;;;;;;;4.40;99.90;;;;;;5074109;28;19922;-75
2021/01/01 13:26:52;;;;;;;;;;;4.40;99.90;;;;;;5070456;28;19909;-75
2021/01/01 13:29:17;;;;;;;;;;;4.40;99.90;;;;;;5073477;28;20437;-75
2021/01/01 13:31:44;;;;;;;;;;;4.40;99.90;;;;;;5073847;28;19916;-75
2021/01/01 13:34:10;;;;;;;;;;;4.40;99.90;;;;;;5073720;28;19916;-75
2021/01/01 13:36:37;;;;;;;;;;;4.40;99.90;;;;;;5070468;28;19924;-75
2021/01/01 13:39:03;;;;;;;;;;;4.40;99.90;;;;;;5072025;28;20361;-74
2021/01/01 13:41:29;;;;;;;;;;;4.40;99.90;;;;;;5073562;28;19913;-75
2021/01/01 13:43:55;;;;;;;;;;;4.40;99.90;;;;;;5073824;28;20317;-75
2021/01/01 13:46:22;;;;;;;;;;;4.50;99.90;;;;;;5065872;28;19921;-75
2021/01/01 13:48:49;;;;;;;;;;;4.50;99.90;;;;;;5064158;28;19909;-75
2021/01/01 13:51:14;;;;;;;;;;;4.40;99.90;;;;;;5073538;28;19912;-74
2021/01/01 13:53:40;;;;;;;;;;;4.30;99.90;;;;;;5073677;28;20368;-74
2021/01/01 13:56:05;;;;;;;;;;;4.40;99.90;;;;;;5072940;28;19950;-75
2021/01/01 13:58:31;;;;;;;;;;;4.30;99.90;;;;;;5073529;28;19909;-75
2021/01/01 14:00:56;;;;;;;;;;;4.40;99.90;;;;;;5072055;28;19920;-75
2021/01/01 14:03:22;;;;;;;;;;;4.30;99.90;;;;;;5070037;28;20010;-75
2021/01/01 14:05:48;;;;;;;;;;;4.30;99.90;;;;;;5069919;28;19919;-75
2021/01/01 14:08:17;;;;;;;;;;;4.40;99.90;;;;;;5071546;28;20418;-75
2021/01/01 14:10:43;;;;;;;;;;;4.40;99.90;;;;;;5071891;28;20307;-75
2021/01/01 14:13:09;;;;;;;;;;;4.40;99.90;;;;;;5072867;28;19916;-75
2021/01/01 14:15:34;;;;;;;;;;;4.40;99.90;;;;;;5069849;28;19931;-75
2021/01/01 14:18:00;;;;;;;;;;;4.40;99.90;;;;;;5075088;28;20288;-75
2021/01/01 14:20:25;;;;;;;;;;;4.40;99.90;;;;;;5072855;28;19909;-75
2021/01/01 14:22:51;;;;;;;;;;;4.30;99.90;;;;;;5070607;28;19912;-75
2021/01/01 14:25:16;;;;;;;;;;;4.20;99.90;;;;;;5072733;28;19964;-75
2021/01/01 14:27:42;;;;;;;;;;;4.20;99.90;;;;;;5068032;28;20337;-75
2021/01/01 14:30:08;;;;;;;;;;;4.10;99.90;;;;;;5075427;28;20393;-75
2021/01/01 14:32:35;;;;;;;;;;;4.00;99.90;;;;;;5072560;28;19915;-75
2021/01/01 14:35:00;;;;;;;;;;;4.00;99.90;;;;;;5071105;28;19920;-75
2021/01/01 14:37:26;;;;;;;;;;;3.80;99.90;;;;;;5072217;28;19919;-75
2021/01/01 14:39:51;;;;;;;;;;;3.80;99.90;;;;;;5072532;28;19909;-75
2021/01/01 14:42:18;;;;;;;;;;;3.70;99.90;;;;;;5071830;28;19987;-75
2021/01/01 14:44:44;;;;;;;;;;;3.60;99.90;;;;;;5077038;28;19908;-75
2021/01/01 14:47:09;;;;;;;;;;;3.50;99.90;;;;;;5069453;28;19919;-75
2021/01/01 14:49:34;;;;;;;;;;;3.50;99.90;;;;;;5071483;28;19912;-75
2021/01/01 14:52:00;;;;;;;;;;;3.40;99.90;;;;;;5072302;28;19909;-75
2021/01/01 14:54:28;;;;;;;;;;;3.40;99.90;;;;;;5071353;28;19913;-75
2021/01/01 14:56:53;;;;;;;;;;;3.40;99.90;;;;;;5078366;28;19915;-75
2021/01/01 14:59:19;;;;;;;;;;;3.30;99.90;;;;;;5067106;28;19912;-75
2021/01/01 15:01:44;;;;;;;;;;;3.30;99.90;;;;;;5076059;28;19922;-75
2021/01/01 15:04:10;;;;;;;;;;;3.20;99.90;;;;;;5069858;28;20346;-75
2021/01/01 15:06:35;;;;;;;;;;;3.30;99.90;;;;;;5070996;28;19916;-75
2021/01/01 15:09:01;;;;;;;;;;;3.30;99.90;;;;;;5070524;28;19987;-75
2021/01/01 15:11:26;;;;;;;;;;;3.20;99.90;;;;;;5065952;28;20273;-74
2021/01/01 15:13:52;;;;;;;;;;;3.20;99.90;;;;;;5073826;28;19951;-75
2021/01/01 15:16:18;;;;;;;;;;;3.10;99.90;;;;;;5068920;28;19916;-74
2021/01/01 15:18:43;;;;;;;;;;;3.00;99.90;;;;;;5072910;28;20361;-75
2021/01/01 15:21:09;;;;;;;;;;;3.00;99.90;;;;;;5068469;28;19971;-75
2021/01/01 15:23:37;;;;;;;;;;;2.90;99.90;;;;;;5069480;28;19914;-75
2021/01/01 15:26:03;;;;;;;;;;;2.80;99.90;;;;;;5067808;28;20028;-74
2021/01/01 15:28:28;;;;;;;;;;;2.70;99.90;;;;;;5069672;28;19991;-75
2021/01/01 15:30:54;;;;;;;;;;;2.60;99.90;;;;;;5071304;28;20296;-75
2021/01/01 15:33:19;;;;;;;;;;;2.60;99.90;;;;;;5069272;28;19920;-75
2021/01/01 15:35:45;;;;;;;;;;;2.50;99.90;;;;;;5075039;28;20369;-75
2021/01/01 15:38:10;;;;;;;;;;;2.40;99.90;;;;;;5067867;28;19909;-75